Marathon, FL (33050)

3:11 AM EDT on July 21, 2017 (GMT -0400)
Little Venice House Rooftop | | Change Station

Elev 8 ft 24.73 °N, 81.03 °W | Updated 12 seconds ago

Clear
Clear
85.4 °F
Feels Like 99 °F
N
0.0
Wind Variable Wind from SSE
Gusts 6.0 mph

Today
High -- | Low -- °F
--% Chance of Precip.
Yesterday
High -- | Low -- °F
Precip. -- in
Pressure 30.01 in
Visibility 10.0 miles
Clouds Few 2100 ft
Heat Index 99 °F
Dew Point 79 °F
Humidity 82%
Rainfall 0.00 in
Snow Depth Not available.
6:47 AM 8:13 PM
Waning Crescent, 7% visible
METAR KNQX 210653Z AUTO 17008KT 10SM FEW021 29/26 A3001 RMK AO2 SLP160 T02890261 TSNO $
Pressure 30.01 in
Visibility 10.0 miles
Clouds Few 2100 ft
Heat Index 99 °F
Dew Point 79 °F
Humidity 82%
Rainfall 0.00 in
Snow Depth Not available.
6:47 AM 8:13 PM
Waning Crescent, 7% visible
METAR KNQX 210653Z AUTO 17008KT 10SM FEW021 29/26 A3001 RMK AO2 SLP160 T02890261 TSNO $

Get Severe Weather Alerts

Thanks for signing up!

Be on the lookout for a verification email in your inbox.

You'll start receiving the daily forecast at 6 AM.

×

10-Day Weather Forecast

Almanac

Astronomy

Jul. 21, 2017 Rise Set
Actual Time
Civil Twilight
Nautical Twilight
Astronomical Twilight
Moon
Length of Visible Light
Length of Day
Tomorrow will be .
, % of the Moon is Illuminated

Today's Extremes

State Highs State Lows

Community

WunderPhotos

Category 6

Welcome to Category 6. This is the collective home for Weather Underground's featured writeups by Dr. Jeff Masters (right), Bob Henson (left), Chris Burt, and other regular contributors.

Nearby

Air Quality

  Air Quality AQ Index Pollutant
Not available.

Snow Depth

Station Depth Elevation

Earthquake Activity

City Distance Mag. Time & Date
Minimum magnitude displayed is 2.5.

Coastal Water Temperatures

Place Temperature

Stations

Nearby Weather Stations

Station Location Temp. Windchill Dew Point Humidity Wind Precip. Elev Updated Type
                   

Watches & Warnings

There are currently no watches in effect.